Time;durP1;ratioP1;P1;durP2;ratioP2;P2;SDS_P1;SDS_P2;PMS_P1;PMS_P2;Temp;Humidity;BMP_temperature;BMP_pressure;BME280_temperature;BME280_humidity;BME280_pressure;Samples;Min_cycle;Max_cycle;Signal;HPM_P1;HPM_P2
2022/06/10 00:00:44;;;;;;;1.47;1.10;;;13.50;99.90;;;;;;5093866;28;20504;-45
2022/06/10 00:03:14;;;;;;;4.20;1.40;;;13.50;99.90;;;;;;5093946;28;21000;-45
2022/06/10 00:05:43;;;;;;;1.50;1.13;;;13.40;99.90;;;;;;5093773;28;20530;-45
2022/06/10 00:08:14;;;;;;;1.50;1.13;;;13.40;99.90;;;;;;5093892;28;20476;-45
2022/06/10 00:10:41;;;;;;;2.30;1.30;;;13.50;99.90;;;;;;5093577;28;20502;-45
2022/06/10 00:13:08;;;;;;;2.50;1.20;;;13.60;99.90;;;;;;5093862;28;20473;-48
2022/06/10 00:15:35;;;;;;;1.73;1.20;;;13.50;99.90;;;;;;5093192;28;20468;-45
2022/06/10 00:18:02;;;;;;;1.40;0.90;;;13.50;99.90;;;;;;5093774;28;20534;-48
2022/06/10 00:20:32;;;;;;;3.37;1.80;;;13.50;99.90;;;;;;5093491;28;20965;-45
2022/06/10 00:23:00;;;;;;;2.40;1.53;;;13.40;99.90;;;;;;5093833;28;20443;-45
2022/06/10 00:25:28;;;;;;;1.30;1.10;;;13.40;99.90;;;;;;5093507;28;20531;-49
2022/06/10 00:27:55;;;;;;;1.70;1.40;;;13.40;99.90;;;;;;5093660;28;20920;-47
2022/06/10 00:30:26;;;;;;;2.03;1.17;;;13.40;99.90;;;;;;5093118;28;20558;-45
2022/06/10 00:32:53;;;;;;;2.20;1.50;;;13.40;99.90;;;;;;5093251;28;20447;-48
2022/06/10 00:35:20;;;;;;;1.40;1.20;;;13.50;99.90;;;;;;5093219;28;20524;-45
2022/06/10 00:37:49;;;;;;;1.97;1.10;;;13.50;99.90;;;;;;5093021;28;20459;-45
2022/06/10 00:40:20;;;;;;;1.60;1.10;;;13.60;99.90;;;;;;5093249;28;20448;-49
2022/06/10 00:42:47;;;;;;;1.90;1.80;;;13.60;99.90;;;;;;5093060;28;20526;-45
2022/06/10 00:45:59;;;;;;;2.17;1.23;;;13.50;99.90;;;;;;5093027;28;20471;-46
2022/06/10 00:48:36;;;;;;;1.37;1.20;;;13.60;99.90;;;;;;5045206;28;20513;-46
2022/06/10 00:51:12;;;;;;;3.73;1.33;;;13.50;99.90;;;;;;5092886;28;20482;-46
2022/06/10 00:53:40;;;;;;;1.60;1.10;;;13.50;99.90;;;;;;5093331;28;20447;-47
2022/06/10 00:56:12;;;;;;;1.47;1.10;;;13.50;99.90;;;;;;5092910;28;20499;-47
2022/06/10 00:58:46;;;;;;;1.33;1.13;;;13.50;99.90;;;;;;5092570;28;20518;-54
2022/06/10 01:01:14;;;;;;;2.43;1.00;;;13.50;99.90;;;;;;5092965;28;20467;-50
2022/06/10 01:03:42;;;;;;;1.20;0.80;;;13.50;99.90;;;;;;5093196;28;20654;-45
2022/06/10 01:06:09;;;;;;;1.40;1.10;;;13.50;99.90;;;;;;5092612;28;20980;-45
2022/06/10 01:08:38;;;;;;;1.07;0.90;;;13.50;99.90;;;;;;5092544;28;20944;-45
2022/06/10 01:11:20;;;;;;;1.50;1.13;;;13.60;99.90;;;;;;5092531;28;20889;-49
2022/06/10 01:13:54;;;;;;;1.70;1.20;;;13.60;99.90;;;;;;5093022;28;20467;-45
2022/06/10 01:16:29;;;;;;;1.30;1.00;;;13.60;99.90;;;;;;5091912;28;20490;-45
2022/06/10 01:19:05;;;;;;;2.43;1.77;;;13.60;99.90;;;;;;5092480;28;20439;-48
2022/06/10 01:22:00;;;;;;;1.60;1.17;;;13.60;99.90;;;;;;5092540;28;20443;-47
2022/06/10 01:24:55;;;;;;;2.47;0.97;;;13.60;99.90;;;;;;5092461;28;20448;-46
2022/06/10 01:27:49;;;;;;;1.60;1.30;;;13.60;99.90;;;;;;5092266;28;20487;-46
2022/06/10 01:30:55;;;;;;;2.90;1.07;;;13.60;99.90;;;;;;5092603;28;20896;-45
2022/06/10 01:33:34;;;;;;;1.20;1.10;;;13.60;99.90;;;;;;5074308;28;20518;-45
2022/06/10 01:36:10;;;;;;;1.40;1.20;;;13.60;99.90;;;;;;5092198;28;20994;-45
2022/06/10 01:38:43;;;;;;;1.40;1.30;;;13.60;99.90;;;;;;5092151;28;20471;-45
2022/06/10 01:41:21;;;;;;;1.33;1.13;;;13.60;99.90;;;;;;5091846;28;20430;-46
2022/06/10 01:43:57;;;;;;;1.73;1.57;;;13.60;99.90;;;;;;5091874;28;20524;-47
2022/06/10 01:46:28;;;;;;;1.60;1.50;;;13.60;99.90;;;;;;5092023;28;20516;-45
2022/06/10 01:49:09;;;;;;;1.50;1.40;;;13.60;99.90;;;;;;5091739;28;20522;-45
2022/06/10 01:51:46;;;;;;;1.50;1.40;;;13.60;99.90;;;;;;5091679;28;20490;-49
2022/06/10 01:54:20;;;;;;;1.70;1.60;;;13.60;99.90;;;;;;5092183;28;20454;-45
2022/06/10 01:56:51;;;;;;;2.03;1.57;;;13.60;99.90;;;;;;5092553;28;20566;-47
2022/06/10 01:59:22;;;;;;;1.80;1.50;;;13.50;99.90;;;;;;5091748;28;20471;-45
2022/06/10 02:01:52;;;;;;;1.37;1.27;;;13.50;99.90;;;;;;5091917;28;20480;-48
2022/06/10 02:04:23;;;;;;;2.03;1.43;;;13.50;99.90;;;;;;5091800;28;20471;-49
2022/06/10 02:06:55;;;;;;;3.37;1.50;;;13.50;99.90;;;;;;5091778;28;20463;-48
2022/06/10 02:09:27;;;;;;;1.60;1.20;;;13.40;99.90;;;;;;5091425;28;20439;-45
2022/06/10 02:11:58;;;;;;;4.50;1.10;;;13.40;99.90;;;;;;5091913;28;20431;-46
2022/06/10 02:14:31;;;;;;;1.40;0.90;;;13.40;99.90;;;;;;5091422;28;20439;-47
2022/06/10 02:16:59;;;;;;;1.37;0.90;;;13.40;99.90;;;;;;5091697;28;20491;-45
2022/06/10 02:19:32;;;;;;;1.80;1.10;;;13.40;99.90;;;;;;5091367;28;20446;-45
2022/06/10 02:22:03;;;;;;;2.70;1.13;;;13.50;99.90;;;;;;5091244;28;20437;-45
2022/06/10 02:24:34;;;;;;;1.30;0.93;;;13.50;99.90;;;;;;5091210;28;20475;-45
2022/06/10 02:27:04;;;;;;;2.40;0.90;;;13.50;99.90;;;;;;5091614;28;20466;-45
2022/06/10 02:29:36;;;;;;;1.47;0.87;;;13.50;99.90;;;;;;5091032;28;20857;-45
2022/06/10 02:32:03;;;;;;;1.70;0.90;;;13.50;99.90;;;;;;5091466;28;20447;-45
2022/06/10 02:34:32;;;;;;;1.30;1.20;;;13.50;99.90;;;;;;5091376;28;20435;-45
2022/06/10 02:37:05;;;;;;;2.50;1.00;;;13.60;99.90;;;;;;5091149;28;20463;-50
2022/06/10 02:39:37;;;;;;;1.10;0.80;;;13.60;99.90;;;;;;5091044;28;20479;-45
2022/06/10 02:42:12;;;;;;;1.70;1.10;;;13.60;99.90;;;;;;5091497;28;20443;-45
2022/06/10 02:44:49;;;;;;;2.17;1.37;;;13.50;99.90;;;;;;5091119;28;20539;-45
2022/06/10 02:47:25;;;;;;;2.57;1.00;;;13.30;99.90;;;;;;5091219;28;20489;-45
2022/06/10 02:49:54;;;;;;;1.10;0.80;;;13.00;99.90;;;;;;5090689;28;20443;-45
2022/06/10 02:52:24;;;;;;;4.10;1.43;;;13.00;99.90;;;;;;5091459;28;20443;-45
2022/06/10 02:54:50;;;;;;;1.43;1.10;;;12.90;99.90;;;;;;5091602;28;20476;-46
2022/06/10 02:57:21;;;;;;;2.70;1.17;;;13.10;99.90;;;;;;5090730;28;20467;-45
2022/06/10 03:02:49;;;;;;;1.37;0.90;;;13.20;99.90;;;;;;5095063;28;20501;-45
2022/06/10 03:05:38;;;;;;;1.57;1.03;;;13.20;99.90;;;;;;5095307;28;20460;-50
2022/06/10 03:08:16;;;;;;;3.40;1.00;;;13.30;99.90;;;;;;5095143;28;20814;-45
2022/06/10 03:10:52;;;;;;;1.20;0.77;;;13.30;99.90;;;;;;5094969;28;20466;-45
2022/06/10 03:13:36;;;;;;;1.43;0.90;;;13.40;99.90;;;;;;5094907;28;20864;-48
2022/06/10 03:16:20;;;;;;;2.20;0.80;;;13.20;99.90;;;;;;5094802;28;20463;-48
2022/06/10 03:18:52;;;;;;;1.60;0.90;;;13.20;99.90;;;;;;5094703;28;20475;-43
2022/06/10 03:21:27;;;;;;;2.50;1.40;;;12.90;99.90;;;;;;5095140;28;20435;-45
2022/06/10 03:24:05;;;;;;;2.17;1.03;;;12.80;99.90;;;;;;5094748;28;20978;-45
2022/06/10 03:26:42;;;;;;;1.80;1.00;;;12.80;99.90;;;;;;5094811;28;20494;-45
2022/06/10 03:29:17;;;;;;;1.40;0.93;;;12.80;99.90;;;;;;5094793;28;20440;-45
2022/06/10 03:31:50;;;;;;;1.87;0.90;;;12.80;99.90;;;;;;5094808;28;20524;-45
2022/06/10 03:34:21;;;;;;;1.70;1.03;;;12.80;99.90;;;;;;5094745;28;20526;-46
2022/06/10 03:36:51;;;;;;;1.47;0.93;;;12.90;99.90;;;;;;5094554;28;20461;-45
2022/06/10 03:39:21;;;;;;;1.30;1.13;;;12.90;99.90;;;;;;5093956;28;20477;-45
2022/06/10 03:41:58;;;;;;;1.40;1.07;;;12.90;99.90;;;;;;5094426;28;20439;-45
2022/06/10 03:44:26;;;;;;;1.30;0.90;;;12.90;99.90;;;;;;5094489;28;20486;-45
2022/06/10 03:46:56;;;;;;;1.80;0.97;;;12.90;99.90;;;;;;5094264;28;20463;-46
2022/06/10 03:49:28;;;;;;;1.40;0.90;;;13.00;99.90;;;;;;5093938;28;20453;-44
2022/06/10 03:51:57;;;;;;;2.00;1.10;;;13.00;99.90;;;;;;5094477;28;20511;-45
2022/06/10 03:54:24;;;;;;;3.30;1.20;;;13.00;99.90;;;;;;5094292;28;20488;-46
2022/06/10 03:56:52;;;;;;;1.20;1.00;;;13.00;99.90;;;;;;5093680;28;20991;-45
2022/06/10 03:59:19;;;;;;;2.13;1.43;;;13.00;99.90;;;;;;5093798;28;20497;-45
2022/06/10 04:01:46;;;;;;;1.67;1.10;;;13.10;99.90;;;;;;5094194;28;20523;-47
2022/06/10 04:04:13;;;;;;;1.50;1.00;;;13.20;99.90;;;;;;5093901;28;20999;-45
2022/06/10 04:06:40;;;;;;;1.60;0.93;;;13.20;99.90;;;;;;5093756;28;21183;-45
2022/06/10 04:09:09;;;;;;;1.63;1.03;;;13.20;99.90;;;;;;5093581;28;20516;-45
2022/06/10 04:11:36;;;;;;;2.20;0.90;;;13.20;99.90;;;;;;5094012;28;20524;-45
2022/06/10 04:14:03;;;;;;;1.43;1.00;;;13.20;99.90;;;;;;5093079;28;20940;-45
2022/06/10 04:16:30;;;;;;;1.50;0.97;;;13.20;99.90;;;;;;5093311;28;20492;-45
2022/06/10 04:18:57;;;;;;;1.30;1.10;;;13.30;99.90;;;;;;5093328;28;20538;-49
2022/06/10 04:21:24;;;;;;;1.83;0.80;;;13.30;99.90;;;;;;5093804;28;20839;-47
2022/06/10 04:23:51;;;;;;;1.60;1.00;;;13.20;99.90;;;;;;5093749;28;20478;-46
2022/06/10 04:26:20;;;;;;;1.50;1.20;;;13.20;99.90;;;;;;5093513;28;20509;-45
2022/06/10 04:28:47;;;;;;;1.60;1.10;;;13.20;99.90;;;;;;5093299;28;20450;-44
2022/06/10 04:31:14;;;;;;;2.07;0.97;;;13.20;99.90;;;;;;5093448;28;20482;-47
2022/06/10 04:33:41;;;;;;;1.53;0.90;;;13.30;99.90;;;;;;5093502;28;20479;-45
2022/06/10 04:36:10;;;;;;;1.57;1.10;;;13.30;99.90;;;;;;5093430;28;20501;-49
2022/06/10 04:38:36;;;;;;;1.80;0.80;;;13.20;99.90;;;;;;5093169;28;20472;-45
2022/06/10 04:41:05;;;;;;;2.77;1.17;;;13.10;99.90;;;;;;5092863;28;20928;-45
2022/06/10 04:43:34;;;;;;;1.10;0.90;;;13.00;99.90;;;;;;5093024;28;20447;-45
2022/06/10 04:46:02;;;;;;;3.07;0.80;;;13.10;99.90;;;;;;5093134;28;20923;-45
2022/06/10 04:48:29;;;;;;;1.20;0.90;;;13.00;99.90;;;;;;5093102;28;20440;-49
2022/06/10 04:50:56;;;;;;;1.80;0.90;;;12.90;99.90;;;;;;5093039;28;20472;-45
2022/06/10 04:53:23;;;;;;;1.77;1.07;;;13.00;99.90;;;;;;5092905;28;20542;-52
2022/06/10 04:55:50;;;;;;;3.37;3.07;;;13.00;99.90;;;;;;5093024;28;20495;-45
2022/06/10 04:58:17;;;;;;;2.17;1.97;;;13.00;99.90;;;;;;5092795;28;20471;-45
2022/06/10 05:00:49;;;;;;;1.57;1.33;;;13.00;99.90;;;;;;5092666;28;20493;-45
2022/06/10 05:03:17;;;;;;;2.80;1.87;;;13.10;99.90;;;;;;5093035;28;20509;-46
2022/06/10 05:05:44;;;;;;;1.10;0.87;;;13.10;99.90;;;;;;5092756;28;20988;-45
2022/06/10 05:08:13;;;;;;;1.53;0.77;;;13.10;99.90;;;;;;5092982;28;20492;-45
2022/06/10 05:10:40;;;;;;;2.10;0.90;;;13.20;99.90;;;;;;5092497;28;20862;-47
2022/06/10 05:13:08;;;;;;;2.47;2.27;;;13.10;99.90;;;;;;5092748;28;20448;-48
2022/06/10 05:15:35;;;;;;;1.97;1.87;;;13.10;99.90;;;;;;5092216;28;20466;-47
2022/06/10 05:18:04;;;;;;;1.30;1.03;;;13.20;99.90;;;;;;5092526;28;20877;-45
2022/06/10 05:20:34;;;;;;;1.13;0.90;;;13.20;99.90;;;;;;5092394;28;20436;-46
2022/06/10 05:23:02;;;;;;;1.20;0.80;;;13.20;99.90;;;;;;5092553;28;20530;-49
2022/06/10 05:25:30;;;;;;;1.40;1.00;;;13.10;99.90;;;;;;5091537;28;20447;-47
2022/06/10 05:27:57;;;;;;;1.50;1.40;;;13.10;99.90;;;;;;5092644;28;20476;-45
2022/06/10 05:30:26;;;;;;;2.60;1.40;;;13.10;99.90;;;;;;5092189;28;20439;-45
2022/06/10 05:32:53;;;;;;;1.57;1.33;;;13.20;99.90;;;;;;5092272;28;20475;-45
2022/06/10 05:35:22;;;;;;;1.60;1.20;;;13.20;99.90;;;;;;5092820;28;20468;-45
2022/06/10 05:37:49;;;;;;;2.23;1.47;;;13.20;99.90;;;;;;5092274;28;21055;-45
2022/06/10 05:40:17;;;;;;;2.00;1.47;;;13.20;99.90;;;;;;5091862;28;20435;-46
2022/06/10 05:42:45;;;;;;;2.17;1.03;;;13.20;99.90;;;;;;5091961;28;20450;-49
2022/06/10 05:45:13;;;;;;;1.30;0.90;;;13.10;99.90;;;;;;5091984;28;20443;-45
2022/06/10 05:47:42;;;;;;;1.20;0.80;;;13.00;99.90;;;;;;5092068;28;20509;-49
2022/06/10 05:50:14;;;;;;;1.90;1.17;;;13.00;99.90;;;;;;5091753;28;20436;-45
2022/06/10 05:52:43;;;;;;;1.83;1.13;;;12.90;99.90;;;;;;5092041;28;20475;-46
2022/06/10 05:55:12;;;;;;;1.80;1.10;;;13.00;99.90;;;;;;5091840;28;20436;-44
2022/06/10 05:57:40;;;;;;;1.87;1.37;;;12.90;99.90;;;;;;5091531;28;20849;-46
2022/06/10 06:00:13;;;;;;;1.90;0.90;;;12.90;99.90;;;;;;5091503;28;20526;-46
2022/06/10 06:02:40;;;;;;;1.20;0.90;;;13.00;99.90;;;;;;5091885;28;20439;-46
2022/06/10 06:05:09;;;;;;;1.33;1.10;;;12.90;99.90;;;;;;5091825;28;20439;-45
2022/06/10 06:07:36;;;;;;;2.07;1.03;;;13.00;99.90;;;;;;5091570;28;20467;-49
2022/06/10 06:10:06;;;;;;;1.40;1.13;;;13.00;99.90;;;;;;5091709;28;20509;-45
2022/06/10 06:12:34;;;;;;;1.43;0.80;;;13.10;99.90;;;;;;5091558;28;20515;-47
2022/06/10 06:15:01;;;;;;;1.30;0.93;;;13.10;99.90;;;;;;5091281;28;20972;-45
2022/06/10 06:17:28;;;;;;;1.40;1.00;;;13.20;99.90;;;;;;5091407;28;20493;-45
2022/06/10 06:19:55;;;;;;;1.60;1.10;;;13.20;99.90;;;;;;5091545;28;20488;-47
2022/06/10 06:22:21;;;;;;;1.73;1.63;;;13.30;99.90;;;;;;5091664;28;20459;-45
2022/06/10 06:24:48;;;;;;;1.80;1.30;;;13.30;99.90;;;;;;5091293;28;20467;-45
2022/06/10 06:27:17;;;;;;;3.03;2.20;;;13.30;99.90;;;;;;5091571;28;20468;-46
2022/06/10 06:29:45;;;;;;;2.33;1.90;;;13.40;99.90;;;;;;5091192;28;20443;-45
2022/06/10 06:32:12;;;;;;;2.70;2.00;;;13.50;99.90;;;;;;5091189;28;20475;-45
2022/06/10 06:34:40;;;;;;;2.60;1.87;;;13.50;99.90;;;;;;5092004;28;20443;-45
2022/06/10 06:37:10;;;;;;;3.30;2.03;;;13.50;99.90;;;;;;5090754;28;20491;-47
2022/06/10 06:39:37;;;;;;;1.63;1.30;;;13.60;99.90;;;;;;5090980;28;20478;-47
2022/06/10 06:42:04;;;;;;;3.30;2.07;;;13.60;99.90;;;;;;5091469;28;20474;-45
2022/06/10 06:44:32;;;;;;;1.90;1.70;;;13.70;99.90;;;;;;5091263;28;20473;-46
2022/06/10 06:46:59;;;;;;;3.10;2.10;;;13.60;99.90;;;;;;5091065;28;20460;-45
2022/06/10 06:49:28;;;;;;;2.13;1.90;;;13.60;99.90;;;;;;5091016;28;20471;-47
2022/06/10 06:51:56;;;;;;;2.30;1.77;;;13.60;99.90;;;;;;5091223;28;20506;-46
2022/06/10 06:54:24;;;;;;;2.80;1.90;;;13.60;99.90;;;;;;5091149;28;21006;-47
2022/06/10 06:56:51;;;;;;;2.33;1.50;;;13.60;99.90;;;;;;5090774;28;20816;-49
2022/06/10 06:59:18;;;;;;;3.43;2.33;;;13.60;99.90;;;;;;5090910;28;20999;-45
2022/06/10 07:01:46;;;;;;;2.70;2.10;;;13.60;99.90;;;;;;5091313;28;20464;-45
2022/06/10 07:04:13;;;;;;;4.20;2.90;;;13.60;99.90;;;;;;5091039;28;20493;-45
2022/06/10 07:06:42;;;;;;;3.20;2.70;;;13.60;99.90;;;;;;5091234;28;20498;-47
2022/06/10 07:09:09;;;;;;;3.57;3.17;;;13.60;99.90;;;;;;5090646;28;20447;-47
2022/06/10 07:11:38;;;;;;;2.90;2.37;;;13.60;99.90;;;;;;5091255;28;20517;-45
2022/06/10 07:14:05;;;;;;;6.97;4.57;;;13.60;99.90;;;;;;5090461;28;20448;-44
2022/06/10 07:16:32;;;;;;;6.10;3.77;;;13.70;99.90;;;;;;5090902;28;20563;-47
2022/06/10 07:19:01;;;;;;;4.20;2.80;;;13.80;99.90;;;;;;5090613;28;21249;-45
2022/06/10 07:21:28;;;;;;;3.90;3.00;;;13.80;99.90;;;;;;5091087;28;20439;-49
2022/06/10 07:23:55;;;;;;;1.73;1.60;;;13.80;99.90;;;;;;5090776;28;20483;-45
2022/06/10 07:26:23;;;;;;;2.37;1.90;;;13.80;99.90;;;;;;5091036;28;20499;-49
2022/06/10 07:28:50;;;;;;;2.00;1.80;;;13.80;99.90;;;;;;5090568;28;20447;-46
2022/06/10 07:31:17;;;;;;;2.30;1.50;;;13.80;99.90;;;;;;5090905;28;20474;-46
2022/06/10 07:33:44;;;;;;;2.40;1.87;;;13.80;99.90;;;;;;5090865;28;20473;-46
2022/06/10 07:36:12;;;;;;;2.00;1.80;;;13.80;99.90;;;;;;5090812;28;20498;-49
2022/06/10 07:38:39;;;;;;;2.00;1.83;;;13.80;99.90;;;;;;5090767;28;20436;-54
2022/06/10 07:43:51;;;;;;;2.40;2.20;;;13.80;99.90;;;;;;5090945;28;20415;-46
2022/06/10 07:46:20;;;;;;;2.90;1.93;;;13.90;99.90;;;;;;5090779;28;20521;-45
2022/06/10 07:48:47;;;;;;;2.47;2.27;;;13.90;99.90;;;;;;5092965;28;20522;-44
2022/06/10 07:51:17;;;;;;;3.50;3.20;;;13.90;99.90;;;;;;5094191;28;20444;-48
2022/06/10 07:53:44;;;;;;;2.20;2.00;;;13.80;99.90;;;;;;5094547;28;20435;-45
2022/06/10 07:56:14;;;;;;;2.20;2.00;;;13.70;99.90;;;;;;5095564;28;20471;-45
2022/06/10 07:58:41;;;;;;;1.93;1.73;;;13.70;99.90;;;;;;5093699;28;20458;-47
2022/06/10 08:01:08;;;;;;;2.53;1.83;;;13.70;99.90;;;;;;5094053;28;20533;-47
2022/06/10 08:03:35;;;;;;;2.43;2.23;;;13.70;99.90;;;;;;5094114;28;20561;-46
2022/06/10 08:06:03;;;;;;;1.87;1.47;;;13.70;99.90;;;;;;5093773;28;20456;-46
2022/06/10 08:08:32;;;;;;;2.90;2.30;;;13.70;99.90;;;;;;5094065;28;20471;-45
2022/06/10 08:10:58;;;;;;;2.10;1.90;;;13.80;99.90;;;;;;5094168;28;20439;-44
2022/06/10 08:13:26;;;;;;;2.50;2.30;;;13.90;99.90;;;;;;5093509;28;20479;-47
2022/06/10 08:15:53;;;;;;;2.43;1.83;;;13.90;99.90;;;;;;5093662;28;20517;-45
2022/06/10 08:18:21;;;;;;;2.60;2.07;;;13.90;99.90;;;;;;5094094;28;20531;-46
2022/06/10 08:23:37;;;;;;;2.30;1.80;;;14.00;99.90;;;;;;5093794;28;20427;-48
2022/06/10 08:26:06;;;;;;;2.60;1.77;;;14.00;99.90;;;;;;5093817;28;20554;-49
2022/06/10 08:28:33;;;;;;;5.10;2.10;;;14.00;99.90;;;;;;5093524;28;20465;-45
2022/06/10 08:31:01;;;;;;;2.83;1.70;;;14.00;99.90;;;;;;5093356;28;20471;-48
2022/06/10 08:33:28;;;;;;;2.17;1.50;;;14.00;99.90;;;;;;5093565;28;20563;-46
2022/06/10 08:35:54;;;;;;;1.80;1.57;;;14.00;99.90;;;;;;5093686;28;20466;-45
2022/06/10 08:38:22;;;;;;;1.50;1.30;;;14.00;99.90;;;;;;5093179;28;20869;-47
2022/06/10 08:40:56;;;;;;;2.33;1.77;;;14.00;99.90;;;;;;5093317;28;20534;-50
2022/06/10 08:43:43;;;;;;;2.57;2.00;;;14.00;99.90;;;;;;5092712;28;20467;-47
2022/06/10 08:46:25;;;;;;;4.07;2.23;;;14.10;99.90;;;;;;5093390;28;20948;-46
2022/06/10 08:49:06;;;;;;;3.53;2.50;;;14.10;99.90;;;;;;5093086;28;20471;-46
2022/06/10 08:51:38;;;;;;;2.00;1.80;;;14.20;99.90;;;;;;5093140;28;20518;-44
2022/06/10 08:54:14;;;;;;;2.43;2.03;;;14.20;99.90;;;;;;5093289;28;20477;-45
2022/06/10 08:56:46;;;;;;;2.20;1.40;;;14.20;99.90;;;;;;5092897;28;20464;-45
2022/06/10 08:59:24;;;;;;;2.20;1.70;;;14.20;99.90;;;;;;5092919;28;20862;-45
2022/06/10 09:02:00;;;;;;;2.60;1.23;;;14.20;99.90;;;;;;5093248;28;20436;-47
2022/06/10 09:04:38;;;;;;;1.50;1.30;;;14.20;99.90;;;;;;5092932;28;20952;-46
2022/06/10 09:07:11;;;;;;;1.40;1.10;;;14.20;99.90;;;;;;5092963;28;20469;-47
2022/06/10 09:09:42;;;;;;;2.40;1.43;;;14.30;99.90;;;;;;5093150;28;20512;-46
2022/06/10 09:12:18;;;;;;;2.00;1.30;;;14.30;99.90;;;;;;5092928;28;20502;-46
2022/06/10 09:14:45;;;;;;;1.90;1.60;;;14.40;99.90;;;;;;5092498;28;20959;-48
2022/06/10 09:17:18;;;;;;;2.40;1.83;;;14.40;99.90;;;;;;5092726;28;20460;-45
2022/06/10 09:19:54;;;;;;;3.90;2.60;;;14.40;99.90;;;;;;5092470;28;20479;-45
2022/06/10 09:22:28;;;;;;;2.77;2.37;;;14.40;99.90;;;;;;5092467;28;20470;-46
2022/06/10 09:25:03;;;;;;;2.90;2.60;;;14.40;99.90;;;;;;5092873;28;20538;-45
2022/06/10 09:27:34;;;;;;;3.00;2.70;;;14.50;99.90;;;;;;5092801;28;20518;-46
2022/06/10 09:30:04;;;;;;;3.17;2.87;;;14.40;99.90;;;;;;5092374;28;20530;-45
2022/06/10 09:32:44;;;;;;;3.87;2.63;;;14.30;99.90;;;;;;5092450;28;20471;-46
2022/06/10 09:35:17;;;;;;;2.50;2.30;;;14.30;99.90;;;;;;5092314;28;20435;-46
2022/06/10 09:37:51;;;;;;;2.87;2.40;;;14.40;99.90;;;;;;5092459;28;20470;-48
2022/06/10 09:40:39;;;;;;;2.73;2.53;;;14.40;99.90;;;;;;5091794;28;21055;-47
2022/06/10 09:43:36;;;;;;;4.07;2.40;;;14.30;99.90;;;;;;5092378;28;20530;-46
2022/06/10 09:46:20;;;;;;;3.10;2.73;;;14.30;99.90;;;;;;5092097;28;20459;-49
2022/06/10 09:49:06;;;;;;;4.03;3.47;;;14.40;99.90;;;;;;5091854;28;20443;-43
2022/06/10 09:51:41;;;;;;;3.03;2.60;;;14.50;99.90;;;;;;5091855;28;20479;-45
2022/06/10 09:54:22;;;;;;;5.77;2.23;;;14.50;99.90;;;;;;5091893;28;20470;-50
2022/06/10 09:57:04;;;;;;;2.97;1.93;;;14.50;99.90;;;;;;5091654;28;20510;-45
2022/06/10 09:59:39;;;;;;;2.10;1.90;;;14.50;99.90;;;;;;5091551;28;20483;-47
2022/06/10 10:02:32;;;;;;;2.20;1.93;;;14.60;99.90;;;;;;5091917;28;20918;-45
2022/06/10 10:05:19;;;;;;;2.07;1.80;;;14.60;99.90;;;;;;5091661;28;20565;-47
2022/06/10 10:07:50;;;;;;;2.43;1.97;;;14.60;99.90;;;;;;5091783;28;20492;-50
2022/06/10 10:10:25;;;;;;;3.60;2.63;;;14.70;99.90;;;;;;5091054;28;20527;-47
2022/06/10 10:13:09;;;;;;;2.83;1.60;;;14.70;99.90;;;;;;5091584;28;20518;-45
2022/06/10 10:15:49;;;;;;;2.60;1.67;;;14.70;99.90;;;;;;5091352;28;20482;-45
2022/06/10 10:18:34;;;;;;;2.33;2.10;;;14.70;99.90;;;;;;5091606;28;20435;-45
2022/06/10 10:21:08;;;;;;;2.80;2.07;;;14.70;99.90;;;;;;5091461;28;20475;-50
2022/06/10 10:23:38;;;;;;;2.77;2.57;;;14.70;99.90;;;;;;5091736;28;20476;-47
2022/06/10 10:26:09;;;;;;;4.00;1.97;;;14.80;99.90;;;;;;5091339;28;21022;-44
2022/06/10 10:28:39;;;;;;;2.37;2.17;;;14.80;99.90;;;;;;5091390;28;20478;-48
2022/06/10 10:31:17;;;;;;;2.27;1.50;;;14.80;99.90;;;;;;5091609;28;20498;-48
2022/06/10 10:33:45;;;;;;;2.93;1.47;;;14.80;99.90;;;;;;5091450;28;20566;-48
2022/06/10 10:36:21;;;;;;;2.50;2.10;;;14.90;99.90;;;;;;5091623;28;20793;-46
2022/06/10 10:38:48;;;;;;;1.63;1.47;;;14.90;99.90;;;;;;5091072;28;20478;-46
2022/06/10 10:41:28;;;;;;;1.97;1.57;;;14.90;99.90;;;;;;5091140;28;20819;-46
2022/06/10 10:43:59;;;;;;;1.93;1.67;;;14.90;99.90;;;;;;5091278;28;20488;-47
2022/06/10 10:46:37;;;;;;;1.60;1.27;;;14.90;99.90;;;;;;5091241;28;20521;-45
2022/06/10 10:49:17;;;;;;;1.90;1.67;;;14.90;99.90;;;;;;5091228;28;20435;-45
2022/06/10 10:51:49;;;;;;;3.40;1.30;;;14.90;99.90;;;;;;5091565;28;20439;-45
2022/06/10 10:54:21;;;;;;;2.33;1.73;;;14.80;99.90;;;;;;5091314;28;20883;-45
2022/06/10 10:56:49;;;;;;;1.90;1.70;;;14.80;99.90;;;;;;5090811;28;20578;-45
2022/06/10 10:59:34;;;;;;;3.13;1.73;;;14.80;99.90;;;;;;5090765;28;20479;-46
2022/06/10 11:02:24;;;;;;;2.23;2.03;;;14.80;99.90;;;;;;5091238;28;21137;-45
2022/06/10 11:04:51;;;;;;;1.40;1.30;;;14.80;99.90;;;;;;5091037;28;20447;-47
2022/06/10 11:07:21;;;;;;;4.37;2.57;;;14.80;99.90;;;;;;5090796;28;20532;-49
2022/06/10 11:09:50;;;;;;;2.13;1.37;;;14.80;99.90;;;;;;5091228;28;20443;-45
2022/06/10 11:12:20;;;;;;;2.43;1.73;;;14.90;99.90;;;;;;5090911;28;20444;-46
2022/06/10 11:14:50;;;;;;;2.13;1.67;;;14.90;99.90;;;;;;5090801;28;20869;-45
2022/06/10 11:17:22;;;;;;;1.63;1.53;;;14.90;99.90;;;;;;5090792;28;20538;-46
2022/06/10 11:19:52;;;;;;;2.30;2.00;;;14.90;99.90;;;;;;5090896;28;20523;-45
2022/06/10 11:22:30;;;;;;;2.80;1.87;;;14.80;99.90;;;;;;5090833;28;20443;-45
2022/06/10 11:25:25;;;;;;;2.00;1.60;;;14.90;99.90;;;;;;5094905;28;20473;-45
2022/06/10 11:28:03;;;;;;;1.93;1.50;;;14.90;99.90;;;;;;5094988;28;20521;-45
2022/06/10 11:30:43;;;;;;;2.70;1.73;;;14.90;99.90;;;;;;5094552;28;20443;-46
2022/06/10 11:33:27;;;;;;;2.00;1.67;;;15.00;99.90;;;;;;5094483;28;20942;-45
2022/06/10 11:36:09;;;;;;;3.70;2.00;;;15.00;99.90;;;;;;5095203;28;20491;-46
2022/06/10 11:38:39;;;;;;;3.57;2.40;;;15.10;99.90;;;;;;5094727;28;20478;-45
2022/06/10 11:41:27;;;;;;;4.20;2.80;;;15.10;99.90;;;;;;5094213;28;20467;-47
2022/06/10 11:44:04;;;;;;;1.70;1.53;;;15.10;99.90;;;;;;5094701;28;20478;-45
2022/06/10 11:46:40;;;;;;;4.70;2.07;;;15.20;99.90;;;;;;5094482;28;20513;-46
2022/06/10 11:49:16;;;;;;;2.47;1.50;;;15.10;99.90;;;;;;5094266;28;20493;-46
2022/06/10 11:51:48;;;;;;;2.20;2.00;;;15.10;99.90;;;;;;5094294;28;20439;-45
2022/06/10 11:54:30;;;;;;;1.50;1.40;;;15.10;99.90;;;;;;5094429;28;20511;-46
2022/06/10 11:59:58;;;;;;;3.33;1.80;;;14.90;99.90;;;;;;5094103;28;20415;-46
2022/06/10 12:02:31;;;;;;;2.50;1.90;;;14.80;99.90;;;;;;5094192;28;20446;-46
2022/06/10 12:05:17;;;;;;;2.73;2.40;;;14.80;99.90;;;;;;5094354;28;20439;-46
2022/06/10 12:07:51;;;;;;;2.30;2.10;;;14.80;99.90;;;;;;5094181;28;20494;-47
2022/06/10 12:10:25;;;;;;;2.27;1.60;;;14.80;99.90;;;;;;5093758;28;20990;-46
2022/06/10 12:12:54;;;;;;;2.50;2.00;;;14.90;99.90;;;;;;5093979;28;20450;-45
2022/06/10 12:15:24;;;;;;;1.70;1.30;;;15.00;99.90;;;;;;5093236;28;20771;-45
2022/06/10 12:17:55;;;;;;;1.90;1.57;;;15.10;99.90;;;;;;5093950;28;20510;-46
2022/06/10 12:20:31;;;;;;;4.50;2.00;;;15.10;99.90;;;;;;5093506;28;20475;-45
2022/06/10 12:23:01;;;;;;;2.47;1.50;;;15.20;99.90;;;;;;5093978;28;20478;-45
2022/06/10 12:25:35;;;;;;;2.57;1.80;;;15.20;99.90;;;;;;5093822;28;20868;-45
2022/06/10 12:28:06;;;;;;;1.67;1.40;;;15.30;99.90;;;;;;5093732;28;20482;-45
2022/06/10 12:30:39;;;;;;;1.63;1.50;;;15.30;99.90;;;;;;5093357;28;20486;-48
2022/06/10 12:33:16;;;;;;;2.23;1.67;;;15.30;99.90;;;;;;5093538;28;20547;-46
2022/06/10 12:35:45;;;;;;;3.50;3.07;;;15.40;99.90;;;;;;5093590;28;20461;-45
2022/06/10 12:38:17;;;;;;;6.60;4.50;;;15.50;99.90;;;;;;5093584;28;20474;-46
2022/06/10 12:40:47;;;;;;;3.10;2.10;;;15.50;99.90;;;;;;5093574;28;20852;-45
2022/06/10 12:43:21;;;;;;;2.27;1.83;;;15.50;99.90;;;;;;5093164;28;20896;-47
2022/06/10 12:45:49;;;;;;;2.03;1.90;;;15.50;99.90;;;;;;5093194;28;20479;-48
2022/06/10 12:48:20;;;;;;;3.20;1.80;;;15.60;99.90;;;;;;5093297;28;20839;-45
2022/06/10 12:50:56;;;;;;;2.57;1.70;;;15.60;99.90;;;;;;5092882;28;20444;-46
2022/06/10 12:53:50;;;;;;;3.43;1.80;;;15.60;99.90;;;;;;5093073;28;20566;-47
2022/06/10 12:56:21;;;;;;;1.70;1.40;;;15.70;99.90;;;;;;5074598;28;20476;-51
2022/06/10 12:58:50;;;;;;;2.03;1.83;;;15.70;99.90;;;;;;5092519;28;20435;-45
2022/06/10 13:01:23;;;;;;;2.60;2.03;;;15.70;99.90;;;;;;5093255;28;20500;-47
2022/06/10 13:03:52;;;;;;;2.20;2.00;;;15.70;99.90;;;;;;5093171;28;20431;-45
2022/06/10 13:06:57;;;;;;;4.90;2.00;;;15.80;99.90;;;;;;5092856;28;20873;-47
2022/06/10 13:09:31;;;;;;;2.37;2.17;;;15.80;99.90;;;;;;5045635;28;20483;-46
2022/06/10 13:12:00;;;;;;;2.03;1.63;;;15.80;99.90;;;;;;5092970;28;20459;-46
2022/06/10 13:14:44;;;;;;;2.00;1.43;;;15.80;99.90;;;;;;5092322;28;20524;-45
2022/06/10 13:17:30;;;;;;;2.63;1.53;;;15.70;99.90;;;;;;5092714;28;20874;-45
2022/06/10 13:20:18;;;;;;;3.50;2.07;;;15.80;99.90;;;;;;5092345;28;20435;-43
2022/06/10 13:23:11;;;;;;;2.93;1.60;;;15.70;99.90;;;;;;5092755;28;20519;-45
2022/06/10 13:25:39;;;;;;;3.07;1.67;;;15.60;99.90;;;;;;5092778;28;20467;-45